Dasher, Georgia
Current Conditions -  °F | °C
As of 1:53 AM on Wednesday 22 Oct 2014 (Local Time) from KVLD Reporting Station
Clear Clear  
Wind Chill: 54°   Ceiling: Unl
Heat Index: 54°   Visibility: 7mi
Dew Point: 50°   Wind: 0mph
Humidity: 86%   Direction: NA
Pressure: 29.98"   Gusts: NA
Location:  30.7579°N, 83.3062°W
Report Text: KVLD 220553Z AUTO 00000KT 7SM CLR 12/10 A2998 RMK AO2 SLP157 T01220100 10167 20122 58007
Loading
Personal Weather Stations






























Interactive Weather Map
Tropical Storm Tracking
New forecast layout! Learn more

10-Day Weather Forecast

Advertisements
Track Severe Weather on mobile